sensor_id;sensor_type;location;lat;lon;timestamp;temperature;humidity
20125;DHT22;10223;50.862;4.360;2023-08-06T00:00:26;14.90;99.90
20125;DHT22;10223;50.862;4.360;2023-08-06T00:02:53;15.00;99.90
20125;DHT22;10223;50.862;4.360;2023-08-06T00:05:19;15.00;99.90
20125;DHT22;10223;50.862;4.360;2023-08-06T00:07:46;15.00;99.90
20125;DHT22;10223;50.862;4.360;2023-08-06T00:10:15;15.00;99.90
20125;DHT22;10223;50.862;4.360;2023-08-06T00:12:42;15.00;99.90
20125;DHT22;10223;50.862;4.360;2023-08-06T00:15:09;15.00;99.90
20125;DHT22;10223;50.862;4.360;2023-08-06T00:17:36;15.00;99.90
20125;DHT22;10223;50.862;4.360;2023-08-06T00:20:04;15.00;99.90
20125;DHT22;10223;50.862;4.360;2023-08-06T00:22:32;15.10;99.90
20125;DHT22;10223;50.862;4.360;2023-08-06T00:24:58;15.10;99.90
20125;DHT22;10223;50.862;4.360;2023-08-06T00:27:27;15.10;99.90
20125;DHT22;10223;50.862;4.360;2023-08-06T00:29:53;15.10;99.90
20125;DHT22;10223;50.862;4.360;2023-08-06T00:32:20;15.10;99.90
20125;DHT22;10223;50.862;4.360;2023-08-06T00:34:47;15.10;99.90
20125;DHT22;10223;50.862;4.360;2023-08-06T00:37:15;15.10;99.90
20125;DHT22;10223;50.862;4.360;2023-08-06T00:39:43;15.10;99.90
20125;DHT22;10223;50.862;4.360;2023-08-06T00:42:09;15.00;99.90
20125;DHT22;10223;50.862;4.360;2023-08-06T00:44:38;15.10;99.90
20125;DHT22;10223;50.862;4.360;2023-08-06T00:47:06;15.20;99.90
20125;DHT22;10223;50.862;4.360;2023-08-06T00:49:34;15.20;99.90
20125;DHT22;10223;50.862;4.360;2023-08-06T00:52:03;15.20;99.90
20125;DHT22;10223;50.862;4.360;2023-08-06T00:54:31;15.10;99.90
20125;DHT22;10223;50.862;4.360;2023-08-06T00:56:59;15.20;99.90
20125;DHT22;10223;50.862;4.360;2023-08-06T00:59:26;15.10;99.90
20125;DHT22;10223;50.862;4.360;2023-08-06T01:01:54;15.10;99.90
20125;DHT22;10223;50.862;4.360;2023-08-06T01:04:21;15.30;99.90
20125;DHT22;10223;50.862;4.360;2023-08-06T01:06:55;15.30;99.90
20125;DHT22;10223;50.862;4.360;2023-08-06T01:09:35;15.20;99.90
20125;DHT22;10223;50.862;4.360;2023-08-06T01:12:09;15.30;99.90
20125;DHT22;10223;50.862;4.360;2023-08-06T01:14:47;15.30;99.90
20125;DHT22;10223;50.862;4.360;2023-08-06T01:17:18;15.20;99.90
20125;DHT22;10223;50.862;4.360;2023-08-06T01:19:45;15.20;99.90
20125;DHT22;10223;50.862;4.360;2023-08-06T01:22:13;15.30;99.90
20125;DHT22;10223;50.862;4.360;2023-08-06T01:24:41;15.30;99.90
20125;DHT22;10223;50.862;4.360;2023-08-06T01:27:17;15.30;99.90
20125;DHT22;10223;50.862;4.360;2023-08-06T01:29:47;15.40;99.90
20125;DHT22;10223;50.862;4.360;2023-08-06T01:32:16;15.40;99.90
20125;DHT22;10223;50.862;4.360;2023-08-06T01:34:44;15.40;99.90
20125;DHT22;10223;50.862;4.360;2023-08-06T01:37:14;15.40;99.90
20125;DHT22;10223;50.862;4.360;2023-08-06T01:39:42;15.40;99.90
20125;DHT22;10223;50.862;4.360;2023-08-06T01:42:09;15.50;99.90
20125;DHT22;10223;50.862;4.360;2023-08-06T01:44:36;15.40;99.90
20125;DHT22;10223;50.862;4.360;2023-08-06T01:47:03;15.50;99.90
20125;DHT22;10223;50.862;4.360;2023-08-06T01:49:30;15.50;99.90
20125;DHT22;10223;50.862;4.360;2023-08-06T01:51:57;15.40;99.90
20125;DHT22;10223;50.862;4.360;2023-08-06T01:54:25;15.40;99.90
20125;DHT22;10223;50.862;4.360;2023-08-06T01:56:53;15.40;99.90
20125;DHT22;10223;50.862;4.360;2023-08-06T01:59:20;15.30;99.90
20125;DHT22;10223;50.862;4.360;2023-08-06T02:01:46;15.40;99.90
20125;DHT22;10223;50.862;4.360;2023-08-06T02:04:13;15.30;99.90
20125;DHT22;10223;50.862;4.360;2023-08-06T02:06:40;15.30;99.90
20125;DHT22;10223;50.862;4.360;2023-08-06T02:09:07;15.30;99.90
20125;DHT22;10223;50.862;4.360;2023-08-06T02:11:35;15.30;99.90
20125;DHT22;10223;50.862;4.360;2023-08-06T02:14:01;15.30;99.90
20125;DHT22;10223;50.862;4.360;2023-08-06T02:16:28;15.40;99.90
20125;DHT22;10223;50.862;4.360;2023-08-06T02:18:55;15.30;99.90
20125;DHT22;10223;50.862;4.360;2023-08-06T02:21:22;15.40;99.90
20125;DHT22;10223;50.862;4.360;2023-08-06T02:23:48;15.50;99.90
20125;DHT22;10223;50.862;4.360;2023-08-06T02:26:15;15.30;99.90
20125;DHT22;10223;50.862;4.360;2023-08-06T02:28:43;15.30;99.90
20125;DHT22;10223;50.862;4.360;2023-08-06T02:31:10;15.40;99.90
20125;DHT22;10223;50.862;4.360;2023-08-06T02:33:37;15.40;99.90
20125;DHT22;10223;50.862;4.360;2023-08-06T02:36:04;15.40;99.90
20125;DHT22;10223;50.862;4.360;2023-08-06T02:38:31;15.40;99.90
20125;DHT22;10223;50.862;4.360;2023-08-06T02:40:58;15.20;99.90
20125;DHT22;10223;50.862;4.360;2023-08-06T02:43:25;15.20;99.90
20125;DHT22;10223;50.862;4.360;2023-08-06T02:45:56;15.40;99.90
20125;DHT22;10223;50.862;4.360;2023-08-06T02:48:23;15.40;99.90
20125;DHT22;10223;50.862;4.360;2023-08-06T02:50:50;15.40;99.90
20125;DHT22;10223;50.862;4.360;2023-08-06T02:53:17;15.30;99.90
20125;DHT22;10223;50.862;4.360;2023-08-06T02:55:45;15.30;99.90
20125;DHT22;10223;50.862;4.360;2023-08-06T02:58:13;15.30;99.90
20125;DHT22;10223;50.862;4.360;2023-08-06T03:00:40;15.40;99.90
20125;DHT22;10223;50.862;4.360;2023-08-06T03:03:08;15.50;99.90
20125;DHT22;10223;50.862;4.360;2023-08-06T03:05:35;15.60;99.90
20125;DHT22;10223;50.862;4.360;2023-08-06T03:08:02;15.60;99.90
20125;DHT22;10223;50.862;4.360;2023-08-06T03:10:28;15.60;99.90
20125;DHT22;10223;50.862;4.360;2023-08-06T03:12:55;15.60;99.90
20125;DHT22;10223;50.862;4.360;2023-08-06T03:15:22;15.50;99.90
20125;DHT22;10223;50.862;4.360;2023-08-06T03:17:49;15.50;99.90
20125;DHT22;10223;50.862;4.360;2023-08-06T03:20:17;15.50;99.90
20125;DHT22;10223;50.862;4.360;2023-08-06T03:22:44;15.60;99.90
20125;DHT22;10223;50.862;4.360;2023-08-06T03:25:11;15.60;99.90
20125;DHT22;10223;50.862;4.360;2023-08-06T03:27:37;15.60;99.90
20125;DHT22;10223;50.862;4.360;2023-08-06T03:30:05;15.60;99.90
20125;DHT22;10223;50.862;4.360;2023-08-06T03:32:32;15.70;99.90
20125;DHT22;10223;50.862;4.360;2023-08-06T03:34:59;15.70;99.90
20125;DHT22;10223;50.862;4.360;2023-08-06T03:37:27;15.80;99.90
20125;DHT22;10223;50.862;4.360;2023-08-06T03:39:54;15.70;99.90
20125;DHT22;10223;50.862;4.360;2023-08-06T03:42:21;15.70;99.90
20125;DHT22;10223;50.862;4.360;2023-08-06T03:44:47;15.60;99.90
20125;DHT22;10223;50.862;4.360;2023-08-06T03:47:14;15.60;99.90
20125;DHT22;10223;50.862;4.360;2023-08-06T03:49:41;15.60;99.90
20125;DHT22;10223;50.862;4.360;2023-08-06T03:52:08;15.60;99.90
20125;DHT22;10223;50.862;4.360;2023-08-06T03:54:37;15.70;99.90
20125;DHT22;10223;50.862;4.360;2023-08-06T03:57:05;15.70;99.90
20125;DHT22;10223;50.862;4.360;2023-08-06T03:59:31;15.60;99.90
20125;DHT22;10223;50.862;4.360;2023-08-06T04:01:58;15.50;99.90
20125;DHT22;10223;50.862;4.360;2023-08-06T04:04:25;15.50;99.90
20125;DHT22;10223;50.862;4.360;2023-08-06T04:06:52;15.50;99.90
20125;DHT22;10223;50.862;4.360;2023-08-06T04:09:18;15.50;99.90
20125;DHT22;10223;50.862;4.360;2023-08-06T04:11:47;15.40;99.90
20125;DHT22;10223;50.862;4.360;2023-08-06T04:14:14;15.30;99.90
20125;DHT22;10223;50.862;4.360;2023-08-06T04:16:40;15.20;99.90
20125;DHT22;10223;50.862;4.360;2023-08-06T04:19:07;15.10;99.90
20125;DHT22;10223;50.862;4.360;2023-08-06T04:21:34;15.10;99.90
20125;DHT22;10223;50.862;4.360;2023-08-06T04:24:00;15.10;99.90
20125;DHT22;10223;50.862;4.360;2023-08-06T04:26:27;15.10;99.90
20125;DHT22;10223;50.862;4.360;2023-08-06T04:28:55;15.10;99.90
20125;DHT22;10223;50.862;4.360;2023-08-06T04:31:22;15.00;99.90
20125;DHT22;10223;50.862;4.360;2023-08-06T04:33:49;14.90;99.90
20125;DHT22;10223;50.862;4.360;2023-08-06T04:36:16;14.90;99.90
20125;DHT22;10223;50.862;4.360;2023-08-06T04:38:43;14.90;99.90
20125;DHT22;10223;50.862;4.360;2023-08-06T04:41:12;14.90;99.90
20125;DHT22;10223;50.862;4.360;2023-08-06T04:43:39;15.00;99.90
20125;DHT22;10223;50.862;4.360;2023-08-06T04:46:07;15.00;99.90
20125;DHT22;10223;50.862;4.360;2023-08-06T04:48:34;15.10;99.90
20125;DHT22;10223;50.862;4.360;2023-08-06T04:51:01;15.00;99.90
20125;DHT22;10223;50.862;4.360;2023-08-06T04:53:28;14.90;99.90
20125;DHT22;10223;50.862;4.360;2023-08-06T04:55:54;14.90;99.90
20125;DHT22;10223;50.862;4.360;2023-08-06T04:58:21;14.90;99.90
20125;DHT22;10223;50.862;4.360;2023-08-06T05:00:48;14.80;99.90
20125;DHT22;10223;50.862;4.360;2023-08-06T05:03:16;14.80;99.90
20125;DHT22;10223;50.862;4.360;2023-08-06T05:05:43;14.80;99.90
20125;DHT22;10223;50.862;4.360;2023-08-06T05:08:14;14.80;99.90
20125;DHT22;10223;50.862;4.360;2023-08-06T05:10:42;14.70;99.90
20125;DHT22;10223;50.862;4.360;2023-08-06T05:13:09;14.70;99.90
20125;DHT22;10223;50.862;4.360;2023-08-06T05:15:36;14.80;99.90
20125;DHT22;10223;50.862;4.360;2023-08-06T05:18:03;14.70;99.90
20125;DHT22;10223;50.862;4.360;2023-08-06T05:20:31;14.70;99.90
20125;DHT22;10223;50.862;4.360;2023-08-06T05:23:02;14.70;99.90
20125;DHT22;10223;50.862;4.360;2023-08-06T05:25:29;14.60;99.90
20125;DHT22;10223;50.862;4.360;2023-08-06T05:27:56;14.70;99.90
20125;DHT22;10223;50.862;4.360;2023-08-06T05:30:23;14.70;99.90
20125;DHT22;10223;50.862;4.360;2023-08-06T05:32:50;14.70;99.90
20125;DHT22;10223;50.862;4.360;2023-08-06T05:35:16;14.80;99.90
20125;DHT22;10223;50.862;4.360;2023-08-06T05:37:45;14.80;99.90
20125;DHT22;10223;50.862;4.360;2023-08-06T05:40:12;14.80;99.90
20125;DHT22;10223;50.862;4.360;2023-08-06T05:42:39;14.80;99.90
20125;DHT22;10223;50.862;4.360;2023-08-06T05:45:07;14.80;99.90
20125;DHT22;10223;50.862;4.360;2023-08-06T05:47:34;14.80;99.90
20125;DHT22;10223;50.862;4.360;2023-08-06T05:50:00;14.70;99.90
20125;DHT22;10223;50.862;4.360;2023-08-06T05:52:27;14.70;99.90
20125;DHT22;10223;50.862;4.360;2023-08-06T05:54:55;14.80;99.90
20125;DHT22;10223;50.862;4.360;2023-08-06T05:57:22;14.90;99.90
20125;DHT22;10223;50.862;4.360;2023-08-06T05:59:49;14.70;99.90
20125;DHT22;10223;50.862;4.360;2023-08-06T06:02:16;14.80;99.90
20125;DHT22;10223;50.862;4.360;2023-08-06T06:04:45;14.80;99.90
20125;DHT22;10223;50.862;4.360;2023-08-06T06:07:11;14.90;99.90
20125;DHT22;10223;50.862;4.360;2023-08-06T06:09:39;14.90;99.90
20125;DHT22;10223;50.862;4.360;2023-08-06T06:12:08;14.90;99.90
20125;DHT22;10223;50.862;4.360;2023-08-06T06:14:34;14.80;99.90
20125;DHT22;10223;50.862;4.360;2023-08-06T06:17:01;14.80;99.90
20125;DHT22;10223;50.862;4.360;2023-08-06T06:19:28;14.90;99.90
20125;DHT22;10223;50.862;4.360;2023-08-06T06:21:55;14.90;99.90
20125;DHT22;10223;50.862;4.360;2023-08-06T06:24:23;15.00;99.90
20125;DHT22;10223;50.862;4.360;2023-08-06T06:26:50;15.00;99.90
20125;DHT22;10223;50.862;4.360;2023-08-06T06:29:18;15.10;99.90
20125;DHT22;10223;50.862;4.360;2023-08-06T06:31:45;15.20;99.90
20125;DHT22;10223;50.862;4.360;2023-08-06T06:34:11;15.30;99.90
20125;DHT22;10223;50.862;4.360;2023-08-06T06:36:38;15.20;99.90
20125;DHT22;10223;50.862;4.360;2023-08-06T06:39:05;15.20;99.90
20125;DHT22;10223;50.862;4.360;2023-08-06T06:41:33;15.20;99.90
20125;DHT22;10223;50.862;4.360;2023-08-06T06:44:00;15.20;99.90
20125;DHT22;10223;50.862;4.360;2023-08-06T06:46:28;15.00;99.90
20125;DHT22;10223;50.862;4.360;2023-08-06T06:48:55;15.00;99.90
20125;DHT22;10223;50.862;4.360;2023-08-06T06:51:22;15.10;99.90
20125;DHT22;10223;50.862;4.360;2023-08-06T06:53:49;15.10;99.90
20125;DHT22;10223;50.862;4.360;2023-08-06T06:56:15;15.20;99.90
20125;DHT22;10223;50.862;4.360;2023-08-06T06:58:42;15.20;99.90
20125;DHT22;10223;50.862;4.360;2023-08-06T07:01:09;15.10;99.90
20125;DHT22;10223;50.862;4.360;2023-08-06T07:03:38;15.10;99.90
20125;DHT22;10223;50.862;4.360;2023-08-06T07:06:05;15.00;99.90
20125;DHT22;10223;50.862;4.360;2023-08-06T07:08:32;14.90;99.90
20125;DHT22;10223;50.862;4.360;2023-08-06T07:11:02;14.90;99.90
20125;DHT22;10223;50.862;4.360;2023-08-06T07:13:29;15.00;99.90
20125;DHT22;10223;50.862;4.360;2023-08-06T07:15:56;14.90;99.90
20125;DHT22;10223;50.862;4.360;2023-08-06T07:18:23;15.10;99.90
20125;DHT22;10223;50.862;4.360;2023-08-06T07:20:52;15.10;99.90
20125;DHT22;10223;50.862;4.360;2023-08-06T07:23:20;15.10;99.90
20125;DHT22;10223;50.862;4.360;2023-08-06T07:25:47;15.10;99.90
20125;DHT22;10223;50.862;4.360;2023-08-06T07:28:14;15.00;99.90
20125;DHT22;10223;50.862;4.360;2023-08-06T07:30:42;15.00;99.90
20125;DHT22;10223;50.862;4.360;2023-08-06T07:33:09;15.00;99.90
20125;DHT22;10223;50.862;4.360;2023-08-06T07:35:36;15.00;99.90
20125;DHT22;10223;50.862;4.360;2023-08-06T07:38:04;15.10;99.90
20125;DHT22;10223;50.862;4.360;2023-08-06T07:40:31;15.10;99.90
20125;DHT22;10223;50.862;4.360;2023-08-06T07:42:58;15.10;99.90
20125;DHT22;10223;50.862;4.360;2023-08-06T07:45:25;15.20;99.90
20125;DHT22;10223;50.862;4.360;2023-08-06T07:47:52;15.20;99.90
20125;DHT22;10223;50.862;4.360;2023-08-06T07:50:19;15.20;99.90
20125;DHT22;10223;50.862;4.360;2023-08-06T07:52:46;15.40;99.90
20125;DHT22;10223;50.862;4.360;2023-08-06T07:55:14;15.60;99.90
20125;DHT22;10223;50.862;4.360;2023-08-06T07:57:41;15.50;99.90
20125;DHT22;10223;50.862;4.360;2023-08-06T08:00:08;15.50;99.90
20125;DHT22;10223;50.862;4.360;2023-08-06T08:02:36;15.50;99.90
20125;DHT22;10223;50.862;4.360;2023-08-06T08:05:03;15.50;99.90
20125;DHT22;10223;50.862;4.360;2023-08-06T08:07:31;15.60;99.90
20125;DHT22;10223;50.862;4.360;2023-08-06T08:09:57;15.60;99.90
20125;DHT22;10223;50.862;4.360;2023-08-06T08:12:26;15.70;99.90
20125;DHT22;10223;50.862;4.360;2023-08-06T08:14:52;15.70;99.90
20125;DHT22;10223;50.862;4.360;2023-08-06T08:17:19;15.80;99.90
20125;DHT22;10223;50.862;4.360;2023-08-06T08:19:46;15.70;99.90
20125;DHT22;10223;50.862;4.360;2023-08-06T08:22:13;15.70;99.90
20125;DHT22;10223;50.862;4.360;2023-08-06T08:24:40;15.60;99.90
20125;DHT22;10223;50.862;4.360;2023-08-06T08:27:06;15.50;99.90
20125;DHT22;10223;50.862;4.360;2023-08-06T08:29:35;15.60;99.90
20125;DHT22;10223;50.862;4.360;2023-08-06T08:32:01;15.40;99.90
20125;DHT22;10223;50.862;4.360;2023-08-06T08:34:28;15.30;99.90
20125;DHT22;10223;50.862;4.360;2023-08-06T08:36:55;15.30;99.90
20125;DHT22;10223;50.862;4.360;2023-08-06T08:39:22;15.20;99.90
20125;DHT22;10223;50.862;4.360;2023-08-06T08:41:49;15.10;99.90
20125;DHT22;10223;50.862;4.360;2023-08-06T08:44:16;15.10;99.90
20125;DHT22;10223;50.862;4.360;2023-08-06T08:46:45;15.10;99.90
20125;DHT22;10223;50.862;4.360;2023-08-06T08:49:14;15.00;99.90
20125;DHT22;10223;50.862;4.360;2023-08-06T08:51:42;15.20;99.90
20125;DHT22;10223;50.862;4.360;2023-08-06T08:54:11;15.20;99.90
20125;DHT22;10223;50.862;4.360;2023-08-06T08:56:39;15.30;99.90
20125;DHT22;10223;50.862;4.360;2023-08-06T08:59:06;15.40;99.90
20125;DHT22;10223;50.862;4.360;2023-08-06T09:01:34;15.40;99.90
20125;DHT22;10223;50.862;4.360;2023-08-06T09:04:05;15.40;99.90
20125;DHT22;10223;50.862;4.360;2023-08-06T09:06:34;15.50;99.90
20125;DHT22;10223;50.862;4.360;2023-08-06T09:09:08;15.40;99.90
20125;DHT22;10223;50.862;4.360;2023-08-06T09:11:39;15.50;99.90
20125;DHT22;10223;50.862;4.360;2023-08-06T09:14:07;15.40;99.90
20125;DHT22;10223;50.862;4.360;2023-08-06T09:16:34;15.30;99.90
20125;DHT22;10223;50.862;4.360;2023-08-06T09:19:08;15.30;99.90
20125;DHT22;10223;50.862;4.360;2023-08-06T09:21:37;15.40;99.90
20125;DHT22;10223;50.862;4.360;2023-08-06T09:24:07;15.40;99.90
20125;DHT22;10223;50.862;4.360;2023-08-06T09:26:49;15.30;99.90
20125;DHT22;10223;50.862;4.360;2023-08-06T09:29:16;15.10;99.90
20125;DHT22;10223;50.862;4.360;2023-08-06T09:31:44;15.00;99.90
20125;DHT22;10223;50.862;4.360;2023-08-06T09:34:11;15.10;99.90
20125;DHT22;10223;50.862;4.360;2023-08-06T09:36:40;15.00;99.90
20125;DHT22;10223;50.862;4.360;2023-08-06T09:39:12;15.00;99.90
20125;DHT22;10223;50.862;4.360;2023-08-06T09:41:39;14.80;99.90
20125;DHT22;10223;50.862;4.360;2023-08-06T09:44:17;14.80;99.90
20125;DHT22;10223;50.862;4.360;2023-08-06T09:46:47;14.80;99.90
20125;DHT22;10223;50.862;4.360;2023-08-06T09:49:14;14.80;99.90
20125;DHT22;10223;50.862;4.360;2023-08-06T09:51:41;14.70;99.90
20125;DHT22;10223;50.862;4.360;2023-08-06T09:54:11;14.70;99.90
20125;DHT22;10223;50.862;4.360;2023-08-06T09:56:38;14.70;99.90
20125;DHT22;10223;50.862;4.360;2023-08-06T09:59:05;14.80;99.90
20125;DHT22;10223;50.862;4.360;2023-08-06T10:01:34;14.80;99.90
20125;DHT22;10223;50.862;4.360;2023-08-06T10:04:02;14.90;99.90
20125;DHT22;10223;50.862;4.360;2023-08-06T10:06:31;15.00;99.90
20125;DHT22;10223;50.862;4.360;2023-08-06T10:08:59;14.90;99.90
20125;DHT22;10223;50.862;4.360;2023-08-06T10:11:26;15.00;99.90
20125;DHT22;10223;50.862;4.360;2023-08-06T10:13:57;15.10;99.90
20125;DHT22;10223;50.862;4.360;2023-08-06T10:16:24;15.10;99.90
20125;DHT22;10223;50.862;4.360;2023-08-06T10:18:54;15.10;99.90
20125;DHT22;10223;50.862;4.360;2023-08-06T10:21:23;15.20;99.90
20125;DHT22;10223;50.862;4.360;2023-08-06T10:23:54;15.20;99.90
20125;DHT22;10223;50.862;4.360;2023-08-06T10:26:25;15.10;99.90
20125;DHT22;10223;50.862;4.360;2023-08-06T10:28:52;15.00;99.90
20125;DHT22;10223;50.862;4.360;2023-08-06T10:31:19;15.00;99.90
20125;DHT22;10223;50.862;4.360;2023-08-06T10:33:47;15.00;99.90
20125;DHT22;10223;50.862;4.360;2023-08-06T10:36:16;14.80;99.90
20125;DHT22;10223;50.862;4.360;2023-08-06T10:38:47;14.80;99.90
20125;DHT22;10223;50.862;4.360;2023-08-06T10:41:22;14.80;99.90
20125;DHT22;10223;50.862;4.360;2023-08-06T10:43:49;14.90;99.90
20125;DHT22;10223;50.862;4.360;2023-08-06T10:46:26;14.80;99.90
20125;DHT22;10223;50.862;4.360;2023-08-06T10:48:53;14.80;99.90
20125;DHT22;10223;50.862;4.360;2023-08-06T10:51:22;14.80;99.90
20125;DHT22;10223;50.862;4.360;2023-08-06T10:53:50;14.80;99.90
20125;DHT22;10223;50.862;4.360;2023-08-06T10:56:18;14.80;99.90
20125;DHT22;10223;50.862;4.360;2023-08-06T10:58:46;14.90;99.90
20125;DHT22;10223;50.862;4.360;2023-08-06T11:01:13;15.00;99.90
20125;DHT22;10223;50.862;4.360;2023-08-06T11:03:41;15.00;99.90
20125;DHT22;10223;50.862;4.360;2023-08-06T11:06:09;15.00;99.90
20125;DHT22;10223;50.862;4.360;2023-08-06T11:08:38;15.10;99.90
20125;DHT22;10223;50.862;4.360;2023-08-06T11:11:08;15.00;99.90
20125;DHT22;10223;50.862;4.360;2023-08-06T11:13:36;15.00;99.90
20125;DHT22;10223;50.862;4.360;2023-08-06T11:16:04;15.10;99.90
20125;DHT22;10223;50.862;4.360;2023-08-06T11:18:31;15.20;99.90
20125;DHT22;10223;50.862;4.360;2023-08-06T11:20:59;15.20;99.90
20125;DHT22;10223;50.862;4.360;2023-08-06T11:23:27;15.20;99.90
20125;DHT22;10223;50.862;4.360;2023-08-06T11:25:56;15.30;99.90
20125;DHT22;10223;50.862;4.360;2023-08-06T11:28:23;15.40;99.90
20125;DHT22;10223;50.862;4.360;2023-08-06T11:30:50;15.30;99.90
20125;DHT22;10223;50.862;4.360;2023-08-06T11:33:20;15.20;99.90
20125;DHT22;10223;50.862;4.360;2023-08-06T11:35:48;15.30;99.90
20125;DHT22;10223;50.862;4.360;2023-08-06T11:38:15;15.30;99.90
20125;DHT22;10223;50.862;4.360;2023-08-06T11:40:43;15.40;99.90
20125;DHT22;10223;50.862;4.360;2023-08-06T11:43:12;15.30;99.90
20125;DHT22;10223;50.862;4.360;2023-08-06T11:45:39;15.40;99.90
20125;DHT22;10223;50.862;4.360;2023-08-06T11:48:06;15.00;99.90
20125;DHT22;10223;50.862;4.360;2023-08-06T11:50:36;14.90;99.90
20125;DHT22;10223;50.862;4.360;2023-08-06T11:53:03;14.90;99.90
20125;DHT22;10223;50.862;4.360;2023-08-06T11:55:31;14.80;99.90
20125;DHT22;10223;50.862;4.360;2023-08-06T11:57:58;14.90;99.90
20125;DHT22;10223;50.862;4.360;2023-08-06T12:00:26;14.90;99.90
20125;DHT22;10223;50.862;4.360;2023-08-06T12:02:53;14.80;99.90
20125;DHT22;10223;50.862;4.360;2023-08-06T12:05:21;15.00;99.90
20125;DHT22;10223;50.862;4.360;2023-08-06T12:07:50;14.80;99.90
20125;DHT22;10223;50.862;4.360;2023-08-06T12:10:17;14.90;99.90
20125;DHT22;10223;50.862;4.360;2023-08-06T12:12:45;15.00;99.90
20125;DHT22;10223;50.862;4.360;2023-08-06T12:15:12;15.00;99.90
20125;DHT22;10223;50.862;4.360;2023-08-06T12:17:40;15.10;99.90
20125;DHT22;10223;50.862;4.360;2023-08-06T12:20:09;15.30;99.90
20125;DHT22;10223;50.862;4.360;2023-08-06T12:22:36;15.20;99.90
20125;DHT22;10223;50.862;4.360;2023-08-06T12:25:06;15.40;99.90
20125;DHT22;10223;50.862;4.360;2023-08-06T12:27:33;15.60;99.90
20125;DHT22;10223;50.862;4.360;2023-08-06T12:30:00;15.60;99.90
20125;DHT22;10223;50.862;4.360;2023-08-06T12:32:29;15.60;99.90
20125;DHT22;10223;50.862;4.360;2023-08-06T12:34:57;15.60;99.90
20125;DHT22;10223;50.862;4.360;2023-08-06T12:37:24;15.60;99.90
20125;DHT22;10223;50.862;4.360;2023-08-06T12:39:52;15.50;99.90
20125;DHT22;10223;50.862;4.360;2023-08-06T12:42:19;15.50;99.90
20125;DHT22;10223;50.862;4.360;2023-08-06T12:44:47;15.40;99.90
20125;DHT22;10223;50.862;4.360;2023-08-06T12:47:16;15.50;99.90
20125;DHT22;10223;50.862;4.360;2023-08-06T12:49:43;15.40;99.90
20125;DHT22;10223;50.862;4.360;2023-08-06T12:52:11;15.50;99.90
20125;DHT22;10223;50.862;4.360;2023-08-06T12:54:40;15.60;99.90
20125;DHT22;10223;50.862;4.360;2023-08-06T12:57:07;15.70;99.90
20125;DHT22;10223;50.862;4.360;2023-08-06T12:59:34;15.50;99.90
20125;DHT22;10223;50.862;4.360;2023-08-06T13:02:02;15.60;99.90
20125;DHT22;10223;50.862;4.360;2023-08-06T13:04:29;15.70;99.90
20125;DHT22;10223;50.862;4.360;2023-08-06T13:06:56;15.70;99.90
20125;DHT22;10223;50.862;4.360;2023-08-06T13:09:24;15.60;99.90
20125;DHT22;10223;50.862;4.360;2023-08-06T13:11:53;15.40;99.90
20125;DHT22;10223;50.862;4.360;2023-08-06T13:14:20;15.60;99.90
20125;DHT22;10223;50.862;4.360;2023-08-06T13:16:47;15.50;99.90
20125;DHT22;10223;50.862;4.360;2023-08-06T13:19:14;15.40;99.90
20125;DHT22;10223;50.862;4.360;2023-08-06T13:22:11;15.30;99.90
20125;DHT22;10223;50.862;4.360;2023-08-06T13:24:43;15.30;99.90
20125;DHT22;10223;50.862;4.360;2023-08-06T13:27:10;15.30;99.90
20125;DHT22;10223;50.862;4.360;2023-08-06T13:29:37;15.40;99.90
20125;DHT22;10223;50.862;4.360;2023-08-06T13:32:04;15.20;99.90
20125;DHT22;10223;50.862;4.360;2023-08-06T13:34:31;15.20;99.90
20125;DHT22;10223;50.862;4.360;2023-08-06T13:36:58;15.30;99.90
20125;DHT22;10223;50.862;4.360;2023-08-06T13:39:25;15.40;99.90
20125;DHT22;10223;50.862;4.360;2023-08-06T13:41:53;15.40;99.90
20125;DHT22;10223;50.862;4.360;2023-08-06T13:44:20;15.30;99.90
20125;DHT22;10223;50.862;4.360;2023-08-06T13:46:47;15.20;99.90
20125;DHT22;10223;50.862;4.360;2023-08-06T13:49:14;15.20;99.90
20125;DHT22;10223;50.862;4.360;2023-08-06T13:51:41;15.10;99.90
20125;DHT22;10223;50.862;4.360;2023-08-06T13:54:08;15.00;99.90
20125;DHT22;10223;50.862;4.360;2023-08-06T13:56:35;15.00;99.90
20125;DHT22;10223;50.862;4.360;2023-08-06T13:59:04;14.90;99.90
20125;DHT22;10223;50.862;4.360;2023-08-06T14:01:32;14.90;99.90
20125;DHT22;10223;50.862;4.360;2023-08-06T14:03:58;14.90;99.90
20125;DHT22;10223;50.862;4.360;2023-08-06T14:06:28;14.80;99.90
20125;DHT22;10223;50.862;4.360;2023-08-06T14:08:56;14.90;99.90
20125;DHT22;10223;50.862;4.360;2023-08-06T14:11:22;15.10;99.90
20125;DHT22;10223;50.862;4.360;2023-08-06T14:13:49;15.00;99.90
20125;DHT22;10223;50.862;4.360;2023-08-06T14:16:18;15.20;99.90
20125;DHT22;10223;50.862;4.360;2023-08-06T14:18:45;15.10;99.90
20125;DHT22;10223;50.862;4.360;2023-08-06T14:21:12;15.10;99.90
20125;DHT22;10223;50.862;4.360;2023-08-06T14:23:40;15.30;99.90
20125;DHT22;10223;50.862;4.360;2023-08-06T14:26:07;15.20;99.90
20125;DHT22;10223;50.862;4.360;2023-08-06T14:28:33;15.30;99.90
20125;DHT22;10223;50.862;4.360;2023-08-06T14:31:00;15.20;99.90
20125;DHT22;10223;50.862;4.360;2023-08-06T14:33:28;15.20;99.90
20125;DHT22;10223;50.862;4.360;2023-08-06T14:35:55;15.20;99.90
20125;DHT22;10223;50.862;4.360;2023-08-06T14:38:22;15.20;99.90
20125;DHT22;10223;50.862;4.360;2023-08-06T14:40:49;15.20;99.90
20125;DHT22;10223;50.862;4.360;2023-08-06T14:43:16;15.20;99.90
20125;DHT22;10223;50.862;4.360;2023-08-06T14:45:44;15.20;99.90
20125;DHT22;10223;50.862;4.360;2023-08-06T14:48:11;15.20;99.90
20125;DHT22;10223;50.862;4.360;2023-08-06T14:50:39;15.30;99.90
20125;DHT22;10223;50.862;4.360;2023-08-06T14:53:07;15.30;99.90
20125;DHT22;10223;50.862;4.360;2023-08-06T14:55:36;15.40;99.90
20125;DHT22;10223;50.862;4.360;2023-08-06T14:58:03;15.40;99.90
20125;DHT22;10223;50.862;4.360;2023-08-06T15:00:30;15.70;99.90
20125;DHT22;10223;50.862;4.360;2023-08-06T15:02:57;15.60;99.90
20125;DHT22;10223;50.862;4.360;2023-08-06T15:05:24;15.70;99.90
20125;DHT22;10223;50.862;4.360;2023-08-06T15:07:53;15.80;99.90
20125;DHT22;10223;50.862;4.360;2023-08-06T15:10:20;15.70;99.90
20125;DHT22;10223;50.862;4.360;2023-08-06T15:12:48;15.70;99.90
20125;DHT22;10223;50.862;4.360;2023-08-06T15:15:15;15.70;99.90
20125;DHT22;10223;50.862;4.360;2023-08-06T15:17:42;15.70;99.90
20125;DHT22;10223;50.862;4.360;2023-08-06T15:20:11;15.70;99.90
20125;DHT22;10223;50.862;4.360;2023-08-06T15:22:38;15.90;99.90
20125;DHT22;10223;50.862;4.360;2023-08-06T15:25:07;15.80;99.90
20125;DHT22;10223;50.862;4.360;2023-08-06T15:27:34;15.60;99.90
20125;DHT22;10223;50.862;4.360;2023-08-06T15:30:01;15.20;99.90
20125;DHT22;10223;50.862;4.360;2023-08-06T15:32:30;15.10;99.90